Time;durP1;ratioP1;P1;durP2;ratioP2;P2;SDS_P1;SDS_P2;PMS_P1;PMS_P2;Temp;Humidity;BMP_temperature;BMP_pressure;BME280_temperature;BME280_humidity;BME280_pressure;Samples;Min_cycle;Max_cycle;Signal;HPM_P1;HPM_P2
2022/10/15 00:09:31;;;;;;;5.72;2.42;;;;;;;11.43;67.62;100750.56;18300747;32;20112;-57
2022/10/15 00:19:34;;;;;;;0.90;0.80;;;;;;;11.35;67.21;100747.97;18303991;32;20097;-57
2022/10/15 00:29:39;;;;;;;1.27;1.17;;;;;;;11.06;68.25;100749.69;18310247;32;20418;-57
2022/10/15 00:39:42;;;;;;;4.07;1.33;;;;;;;11.08;67.18;100749.69;18308504;32;20121;-57
2022/10/15 00:49:50;;;;;;;1.40;0.73;;;;;;;10.96;67.80;100735.75;18308212;32;20147;-57
2022/10/15 00:59:57;;;;;;;0.80;0.80;;;;;;;11.01;67.75;100729.66;18307945;32;20140;-57
2022/10/15 01:10:02;;;;;;;1.62;1.25;;;;;;;11.01;67.85;100717.47;18306135;32;20093;-57
2022/10/15 01:20:27;;;;;;;1.65;1.50;;;;;;;10.79;67.80;100717.44;18307179;32;20093;-57
2022/10/15 01:30:34;;;;;;;1.08;1.08;;;;;;;10.69;69.03;100728.72;18306601;32;20343;-57
2022/10/15 01:40:42;;;;;;;0.88;0.88;;;;;;;10.92;68.09;100718.34;18306880;32;20097;-57
2022/10/15 01:50:51;;;;;;;0.90;0.80;;;;;;;10.86;68.61;100710.47;18306314;32;20097;-57
2022/10/15 02:00:54;;;;;;;4.75;2.58;;;;;;;10.82;68.19;100709.59;18306183;32;20090;-57
2022/10/15 02:11:04;;;;;;;0.88;0.88;;;;;;;10.90;67.74;100703.53;18306820;32;20434;-57
2022/10/15 02:21:11;;;;;;;0.70;0.70;;;;;;;10.71;67.34;100700.88;18305524;32;20112;-57
2022/10/15 02:31:17;;;;;;;1.37;1.27;;;;;;;10.63;67.75;100707.81;18305403;32;20126;-57
2022/10/15 02:41:20;;;;;;;0.73;0.73;;;;;;;10.51;68.33;100703.44;18304197;32;20099;-57
2022/10/15 02:51:25;;;;;;;0.80;0.80;;;;;;;10.52;67.52;100697.34;18304698;32;20402;-57
2022/10/15 03:01:28;;;;;;;2.62;1.65;;;;;;;10.35;67.30;100687.72;18305228;32;20093;-57
2022/10/15 03:11:32;;;;;;;0.60;0.60;;;;;;;10.17;67.20;100685.03;18303825;32;20097;-56
2022/10/15 03:21:36;;;;;;;5.10;1.30;;;;;;;10.04;67.51;100684.94;18303558;32;20097;-57
2022/10/15 03:31:40;;;;;;;0.82;0.82;;;;;;;10.12;67.36;100683.25;18303001;32;20093;-57
2022/10/15 03:41:43;;;;;;;1.37;1.20;;;;;;;10.06;67.51;100683.25;18302503;32;20097;-57
2022/10/15 03:51:52;;;;;;;0.95;0.95;;;;;;;9.93;67.86;100694.47;18303036;32;20112;-57
2022/10/15 04:01:56;;;;;;;1.02;0.95;;;;;;;9.98;67.02;100705.81;18309923;32;20102;-57
2022/10/15 04:12:00;;;;;;;0.70;0.70;;;;;;;9.91;67.76;100694.47;18309237;32;20112;-57
2022/10/15 04:22:04;;;;;;;0.95;0.95;;;;;;;9.79;68.04;100692.66;18309073;32;20094;-57
2022/10/15 04:32:10;;;;;;;0.32;0.32;;;;;;;9.79;68.12;100681.34;18309716;32;20138;-57
2022/10/15 04:42:14;;;;;;;2.33;1.98;;;;;;;9.78;67.95;100682.22;18308623;32;20098;-57
2022/10/15 04:52:18;;;;;;;0.47;0.47;;;;;;;9.63;68.21;100696.94;18308007;32;20377;-57
2022/10/15 05:02:22;;;;;;;2.15;1.08;;;;;;;9.60;68.39;100683.00;18307404;32;20098;-57
2022/10/15 05:12:26;;;;;;;1.02;1.00;;;;;;;9.54;68.57;100702.94;18307064;32;20149;-57
2022/10/15 05:22:29;;;;;;;1.77;1.58;;;;;;;9.53;69.08;100709.00;18307157;32;20374;-57
2022/10/15 05:32:34;;;;;;;0.60;0.60;;;;;;;9.80;68.03;100704.84;18306719;32;20143;-57
2022/10/15 05:42:37;;;;;;;0.88;0.82;;;;;;;9.78;68.43;100696.16;18306138;32;20094;-57
2022/10/15 05:52:41;;;;;;;1.15;1.10;;;;;;;9.91;68.38;100694.47;18306364;32;20116;-57
2022/10/15 06:02:44;;;;;;;0.70;0.70;;;;;;;10.23;67.42;100698.97;18305296;32;20627;-57
2022/10/15 06:12:52;;;;;;;0.80;0.80;;;;;;;10.18;68.02;100708.50;18305605;32;20404;-57
2022/10/15 06:22:58;;;;;;;3.85;1.30;;;;;;;10.43;68.76;100729.50;18303555;32;20185;-57
2022/10/15 06:33:03;;;;;;;0.40;0.40;;;;;;;10.93;69.28;100730.53;18304090;32;20098;-57
2022/10/15 06:43:07;;;;;;;0.52;0.52;;;;;;;11.54;69.11;100737.50;18304194;32;20183;-57
2022/10/15 06:53:11;;;;;;;2.05;0.80;;;;;;;12.40;68.62;100736.47;18302768;32;20085;-57
2022/10/15 07:03:14;;;;;;;0.88;0.88;;;;;;;13.57;66.76;100746.19;18303098;32;20097;-57
2022/10/15 07:13:19;;;;;;;1.10;1.05;;;;;;;15.66;62.22;100750.47;18285237;32;20101;-58
2022/10/15 07:23:22;;;;;;;2.05;0.98;;;;;;;16.69;59.53;100756.34;18301561;32;20125;-57
2022/10/15 07:33:33;;;;;;;0.68;0.30;;;;;;;16.72;58.82;100758.94;18252109;32;20086;-57
2022/10/15 07:43:36;;;;;;;0.30;0.30;;;;;;;17.22;58.39;100754.34;18259466;32;20148;-57
2022/10/15 07:53:42;;;;;;;0.32;0.30;;;;;;;17.30;58.25;100752.34;18272674;32;20086;-57
2022/10/15 08:03:46;;;;;;;0.70;0.65;;;;;;;17.09;58.73;100751.97;18300319;32;20176;-58
2022/10/15 08:13:52;;;;;;;0.40;0.40;;;;;;;17.28;57.87;100754.16;18300543;32;20097;-57
2022/10/15 08:23:55;;;;;;;0.57;0.28;;;;;;;17.44;57.14;100762.56;18299497;32;20363;-57
2022/10/15 08:34:01;;;;;;;0.93;0.93;;;;;;;17.74;56.19;100771.47;18297304;32;20112;-58
2022/10/15 08:44:04;;;;;;;0.20;0.20;;;;;;;17.61;55.79;100768.28;18305155;32;20089;-57
2022/10/15 08:54:15;;;;;;;0.70;0.60;;;;;;;17.47;56.82;100754.59;18307653;32;20107;-57
2022/10/15 09:04:24;;;;;;;0.20;0.20;;;;;;;18.21;54.29;100757.03;18306660;32;20108;-58
2022/10/15 09:14:37;;;;;;;0.50;0.50;;;;;;;18.96;52.30;100758.34;18308447;32;20455;-57
2022/10/15 09:24:40;;;;;;;0.20;0.20;;;;;;;19.03;51.59;100755.53;18306850;32;20123;-57
2022/10/15 09:34:48;;;;;;;0.10;0.10;;;;;;;19.49;50.42;100764.59;18290108;32;20450;-57
2022/10/15 09:44:52;;;;;;;0.20;0.20;;;;;;;19.67;50.60;100767.56;18278876;32;20112;-57
2022/10/15 09:55:03;;;;;;;0.20;0.20;;;;;;;19.43;51.18;100775.41;18305453;32;20081;-58
2022/10/15 10:05:24;;;;;;;1.80;0.97;;;;;;;19.51;50.11;100749.53;18297503;32;20172;-58
2022/10/15 10:15:32;;;;;;;4.83;0.70;;;;;;;19.98;48.35;100745.31;18305298;32;20211;-57
2022/10/15 10:25:38;;;;;;;0.20;0.20;;;;;;;20.26;47.21;100744.28;18302269;32;20167;-57
2022/10/15 10:35:48;;;;;;;0.20;0.20;;;;;;;19.65;48.54;100737.63;18281407;32;20458;-57
2022/10/15 10:45:57;;;;;;;0.30;0.30;;;;;;;20.74;46.38;100713.28;18242604;32;20430;-58
2022/10/15 10:56:05;;;;;;;0.10;0.10;;;;;;;20.88;45.20;100712.78;18304750;32;20107;-57
2022/10/15 11:06:21;;;;;;;2.90;0.50;;;;;;;21.47;43.89;100696.19;18275035;32;20095;-57
2022/10/15 11:16:33;;;;;;;0.30;0.20;;;;;;;21.57;42.41;100692.19;18301202;32;20089;-58
2022/10/15 11:26:50;;;;;;;0.43;0.30;;;;;;;21.49;42.69;100691.69;18299003;32;82725;-57
2022/10/15 11:37:26;;;;;;;0.13;0.13;;;;;;;21.30;43.91;100681.84;18298114;32;20105;-57
2022/10/15 11:47:36;;;;;;;0.10;0.10;;;;;;;21.04;44.83;100659.94;18301275;32;20085;-57
2022/10/15 11:57:42;;;;;;;0.10;0.10;;;;;;;21.04;44.51;100643.13;18300118;32;20093;-57
2022/10/15 12:07:48;;;;;;;0.05;0.05;;;;;;;21.43;44.02;100634.38;18292113;32;20137;-57
2022/10/15 12:18:03;;;;;;;0.17;0.17;;;;;;;21.41;42.69;100636.22;18299911;32;20122;-57
2022/10/15 12:28:14;;;;;;;0.17;0.17;;;;;;;21.60;42.11;100627.44;18267130;32;20108;-57
2022/10/15 12:38:23;;;;;;;0.43;0.43;;;;;;;21.53;41.91;100621.56;18309324;32;20196;-59
2022/10/15 12:48:32;;;;;;;0.10;0.10;;;;;;;21.26;41.58;100613.87;18306824;32;20110;-57
2022/10/15 12:58:37;;;;;;;0.10;0.10;;;;;;;21.35;40.94;100615.28;18308020;32;20100;-57
2022/10/15 13:08:44;;;;;;;0.10;0.10;;;;;;;21.21;40.79;100606.09;18304554;32;20089;-57
2022/10/15 13:18:51;;;;;;;0.40;0.40;;;;;;;20.91;40.59;100621.53;18306944;32;20521;-57
2022/10/15 13:28:57;;;;;;;0.10;0.10;;;;;;;21.13;41.00;100628.62;18305409;32;20090;-57
2022/10/15 13:39:04;;;;;;;2.08;0.62;;;;;;;21.00;41.98;100621.16;18305873;32;20464;-57
2022/10/15 13:49:12;;;;;;;0.10;0.10;;;;;;;21.14;41.57;100620.56;18305928;32;20117;-58
2022/10/15 13:59:18;;;;;;;0.57;0.22;;;;;;;21.31;40.77;100630.47;18306466;32;20108;-57
2022/10/15 14:09:25;;;;;;;0.10;0.10;;;;;;;21.31;40.72;100626.94;18305492;32;20097;-57
2022/10/15 14:19:31;;;;;;;0.10;0.10;;;;;;;21.05;41.74;100626.28;18304708;32;20086;-58
2022/10/15 14:29:40;;;;;;;0.10;0.10;;;;;;;20.99;43.12;100614.13;18300932;32;20101;-57
2022/10/15 14:39:48;;;;;;;0.10;0.10;;;;;;;21.12;43.35;100605.66;18300139;32;20090;-58
2022/10/15 14:49:53;;;;;;;0.52;0.25;;;;;;;20.95;42.67;100609.00;18303637;32;20090;-57
2022/10/15 14:59:58;;;;;;;0.15;0.15;;;;;;;20.66;43.33;100615.44;18304197;32;20093;-57
2022/10/15 15:10:01;;;;;;;0.20;0.20;;;;;;;20.47;44.35;100615.34;18303788;32;20125;-57
2022/10/15 15:20:07;;;;;;;0.10;0.10;;;;;;;20.45;45.31;100625.16;18301962;32;20088;-57
2022/10/15 15:30:15;;;;;;;0.20;0.20;;;;;;;20.18;46.37;100624.44;18266241;32;20097;-58
2022/10/15 15:40:20;;;;;;;0.17;0.17;;;;;;;19.99;47.11;100611.91;18295539;32;20163;-58
2022/10/15 15:50:23;;;;;;;0.20;0.20;;;;;;;19.85;48.00;100614.19;18305103;32;20124;-57
2022/10/15 16:00:28;;;;;;;0.75;0.40;;;;;;;19.67;49.48;100616.59;18309458;32;20464;-57
2022/10/15 16:10:31;;;;;;;0.22;0.22;;;;;;;19.46;50.84;100645.59;18306455;32;20093;-57
2022/10/15 16:20:38;;;;;;;0.20;0.20;;;;;;;19.34;51.66;100665.41;18308470;32;20370;-57
2022/10/15 16:30:41;;;;;;;1.27;0.85;;;;;;;19.09;52.75;100670.69;18309072;32;20116;-57
2022/10/15 16:40:47;;;;;;;0.73;0.73;;;;;;;18.91;53.47;100687.97;18308589;32;20093;-57
2022/10/15 16:50:59;;;;;;;0.20;0.20;;;;;;;18.77;53.97;100701.63;18308143;32;20121;-57
2022/10/15 17:01:06;;;;;;;0.20;0.20;;;;;;;18.68;54.82;100708.09;18304816;32;20112;-57
2022/10/15 17:11:09;;;;;;;3.58;1.23;;;;;;;18.51;56.03;100716.56;18307837;32;20442;-57
2022/10/15 17:21:15;;;;;;;1.58;1.30;;;;;;;18.38;56.41;100721.34;18307488;32;20097;-57
2022/10/15 17:31:20;;;;;;;0.55;0.55;;;;;;;18.25;57.18;100736.69;18307271;32;20097;-57
2022/10/15 17:41:26;;;;;;;0.52;0.40;;;;;;;18.17;57.58;100744.84;18308031;32;20097;-57
2022/10/15 17:51:31;;;;;;;0.93;0.88;;;;;;;18.02;58.49;100761.94;18304783;32;20164;-57
2022/10/15 18:01:37;;;;;;;0.60;0.60;;;;;;;17.94;58.83;100756.88;18306161;32;20500;-57
2022/10/15 18:12:01;;;;;;;0.30;0.30;;;;;;;17.80;59.39;100775.72;18303801;32;20184;-57
2022/10/15 18:22:06;;;;;;;1.17;0.95;;;;;;;17.72;59.86;100788.25;18304803;32;20093;-57
2022/10/15 18:32:09;;;;;;;2.17;1.98;;;;;;;17.54;61.06;100793.09;18304497;32;20170;-57
2022/10/15 18:42:13;;;;;;;1.80;0.95;;;;;;;17.36;62.03;100785.63;18305970;32;20102;-57
2022/10/15 18:52:16;;;;;;;0.62;0.55;;;;;;;17.44;61.62;100783.69;18289169;32;20107;-57
2022/10/15 19:02:38;;;;;;;0.20;0.20;;;;;;;17.41;61.58;100779.37;18303649;32;20089;-57
2022/10/15 19:12:41;;;;;;;1.15;1.08;;;;;;;17.33;61.64;100779.53;18301777;32;20124;-57
2022/10/15 19:22:46;;;;;;;0.75;0.30;;;;;;;17.37;61.25;100790.88;18297337;32;20460;-57
2022/10/15 19:32:49;;;;;;;0.40;0.40;;;;;;;17.33;61.14;100805.91;18300333;32;20108;-57
2022/10/15 19:42:54;;;;;;;1.10;0.45;;;;;;;17.19;61.87;100818.59;18299436;32;20144;-57
2022/10/15 19:52:57;;;;;;;0.20;0.20;;;;;;;17.09;62.63;100824.97;18301867;32;20077;-57
2022/10/15 20:03:01;;;;;;;0.20;0.20;;;;;;;17.10;62.01;100824.06;18300249;32;20672;-57
2022/10/15 20:13:04;;;;;;;0.93;0.73;;;;;;;17.04;62.16;100831.19;18248109;32;20474;-57
2022/10/15 20:23:10;;;;;;;0.30;0.30;;;;;;;17.09;62.43;100846.94;18234884;32;20094;-57
2022/10/15 20:33:13;;;;;;;0.30;0.30;;;;;;;17.05;62.64;100861.09;18243649;32;20094;-57
2022/10/15 20:43:20;;;;;;;0.70;0.40;;;;;;;17.08;62.78;100879.47;18298160;32;20089;-57
2022/10/15 20:53:24;;;;;;;1.12;0.88;;;;;;;17.07;62.82;100888.31;18308007;32;20077;-57
2022/10/15 21:03:29;;;;;;;0.77;0.77;;;;;;;17.03;63.32;100882.22;18302546;32;20112;-57
2022/10/15 21:13:33;;;;;;;0.80;0.40;;;;;;;17.04;63.14;100888.37;18300101;32;20093;-58
2022/10/15 21:23:39;;;;;;;3.55;0.85;;;;;;;16.97;63.60;100900.75;18301162;32;20112;-57
2022/10/15 21:33:42;;;;;;;1.48;1.37;;;;;;;16.95;63.67;100896.44;18300618;32;20176;-57
2022/10/15 21:43:46;;;;;;;1.05;0.95;;;;;;;16.94;63.76;100892.94;18304434;32;20167;-57
2022/10/15 21:53:50;;;;;;;0.30;0.30;;;;;;;16.92;63.77;100900.00;18302224;32;20212;-58
2022/10/15 22:03:59;;;;;;;1.00;0.77;;;;;;;16.87;63.77;100913.28;18302872;32;20108;-58
2022/10/15 22:14:03;;;;;;;0.70;0.70;;;;;;;16.82;64.12;100924.84;18302930;32;20093;-58
2022/10/15 22:24:11;;;;;;;0.40;0.40;;;;;;;16.70;64.65;100931.19;18303365;32;20097;-57
2022/10/15 22:34:14;;;;;;;0.50;0.50;;;;;;;16.67;65.03;100929.50;18305305;32;20421;-57
2022/10/15 22:44:20;;;;;;;0.40;0.40;;;;;;;16.71;64.95;100938.22;18305101;32;20090;-57
2022/10/15 22:54:23;;;;;;;3.60;0.50;;;;;;;16.83;64.71;100943.22;18304627;32;20482;-57
2022/10/15 23:04:28;;;;;;;0.60;0.60;;;;;;;16.74;65.13;100954.84;18293072;32;20160;-57
2022/10/15 23:14:31;;;;;;;3.20;2.05;;;;;;;16.62;65.70;100958.56;18240594;32;20138;-57
2022/10/15 23:24:35;;;;;;;0.50;0.50;;;;;;;16.73;65.23;100944.31;18239845;32;20097;-57
2022/10/15 23:34:39;;;;;;;2.35;1.05;;;;;;;16.63;65.53;100956.81;18239905;32;20098;-58
2022/10/15 23:44:43;;;;;;;0.65;0.65;;;;;;;16.68;65.22;100973.41;18239432;32;20144;-57
2022/10/15 23:54:46;;;;;;;0.47;0.47;;;;;;;16.64;65.10;100967.31;18238862;32;20097;-57
